Time;durP1;ratioP1;P1;durP2;ratioP2;P2;SDS_P1;SDS_P2;PMS_P1;PMS_P2;Temp;Humidity;BMP_temperature;BMP_pressure;BME280_temperature;BME280_humidity;BME280_pressure;Samples;Min_cycle;Max_cycle;Signal;HPM_P1;HPM_P2
2022/01/02 00:02:43;;;;;;;18.30;14.65;;;;;;;;;;12546176;28;20036;-71
2022/01/02 00:08:47;;;;;;;15.13;11.07;;;;;;;;;;12527910;28;20033;-71
2022/01/02 00:18:13;;;;;;;10.10;8.93;;;;;;;;;;12677332;27;20550;-71
2022/01/02 00:24:20;;;;;;;15.32;13.57;;;;;;;;;;12652737;28;20032;-71
2022/01/02 00:30:22;;;;;;;22.45;17.92;;;;;;;;;;12635898;28;20036;-71
2022/01/02 00:36:24;;;;;;;13.73;11.40;;;;;;;;;;12636643;28;20043;-72
2022/01/02 00:42:29;;;;;;;13.27;10.90;;;;;;;;;;12636104;28;20032;-73
2022/01/02 00:48:32;;;;;;;16.55;13.75;;;;;;;;;;12636143;28;20036;-72
2022/01/02 00:54:34;;;;;;;14.85;12.02;;;;;;;;;;12635603;28;20051;-73
2022/01/02 01:00:36;;;;;;;14.15;11.75;;;;;;;;;;12635997;28;20028;-72
2022/01/02 01:06:39;;;;;;;26.52;17.92;;;;;;;;;;12635720;28;20032;-73
2022/01/02 01:12:40;;;;;;;14.52;11.68;;;;;;;;;;12633868;28;20071;-73
2022/01/02 01:18:42;;;;;;;14.73;12.82;;;;;;;;;;12633547;28;20059;-72
2022/01/02 01:24:45;;;;;;;8.63;7.82;;;;;;;;;;12609821;28;20036;-70
2022/01/02 01:30:48;;;;;;;12.52;10.90;;;;;;;;;;12600544;28;20470;-73
2022/01/02 01:36:50;;;;;;;13.65;12.05;;;;;;;;;;12582217;28;20036;-71
2022/01/02 01:42:58;;;;;;;15.48;11.95;;;;;;;;;;12598519;28;20037;-71
2022/01/02 01:49:14;;;;;;;13.02;10.85;;;;;;;;;;12598588;28;20043;-71
2022/01/02 01:55:19;;;;;;;10.17;9.17;;;;;;;;;;12598285;28;20036;-71
2022/01/02 02:01:21;;;;;;;12.27;10.52;;;;;;;;;;12597967;28;20394;-71
2022/01/02 02:07:37;;;;;;;9.57;8.65;;;;;;;;;;12597684;28;20115;-71
2022/01/02 02:13:39;;;;;;;13.43;10.35;;;;;;;;;;12596837;28;20064;-71
2022/01/02 02:19:42;;;;;;;15.88;12.65;;;;;;;;;;12580432;28;20401;-71
2022/01/02 02:25:44;;;;;;;10.07;9.07;;;;;;;;;;12597336;28;20028;-71
2022/01/02 02:31:47;;;;;;;12.88;11.45;;;;;;;;;;12596510;28;20047;-71
2022/01/02 02:38:39;;;;;;;16.38;12.88;;;;;;;;;;12701213;27;20529;-71
2022/01/02 02:44:41;;;;;;;11.27;9.25;;;;;;;;;;12720312;28;20031;-71
2022/01/02 02:50:47;;;;;;;15.30;11.63;;;;;;;;;;12720064;28;20035;-71
2022/01/02 02:56:57;;;;;;;7.47;6.78;;;;;;;;;;12702960;28;20050;-71
2022/01/02 03:03:01;;;;;;;14.20;11.23;;;;;;;;;;12702884;27;20028;-71
2022/01/02 03:09:14;;;;;;;15.63;12.07;;;;;;;;;;12702443;28;20480;-73
2022/01/02 03:15:16;;;;;;;18.15;12.98;;;;;;;;;;12719132;28;20488;-71
2022/01/02 03:21:18;;;;;;;26.85;17.30;;;;;;;;;;12736972;28;20035;-71
2022/01/02 03:27:20;;;;;;;17.42;15.52;;;;;;;;;;12736560;28;20035;-71
2022/01/02 03:39:28;;;;;;;9.40;8.25;;;;;;;;;;12587329;28;20493;-71
2022/01/02 03:45:30;;;;;;;17.53;11.93;;;;;;;;;;12585465;28;20045;-71
2022/01/02 03:51:32;;;;;;;9.00;8.10;;;;;;;;;;12568935;28;20043;-71
2022/01/02 03:57:34;;;;;;;15.90;14.25;;;;;;;;;;12585113;28;20362;-71
2022/01/02 04:03:36;;;;;;;16.60;13.93;;;;;;;;;;12568270;28;20497;-71
2022/01/02 04:10:30;;;;;;;9.35;8.43;;;;;;;;;;12587090;28;20491;-71
2022/01/02 04:16:32;;;;;;;13.30;11.48;;;;;;;;;;12586959;28;20036;-71
2022/01/02 04:22:35;;;;;;;16.70;14.00;;;;;;;;;;12585569;28;20517;-71
2022/01/02 04:28:37;;;;;;;12.45;10.20;;;;;;;;;;12585469;28;20036;-71
2022/01/02 06:55:10;;;;;;;12.70;11.57;;;;;;;;;;12587449;28;20850;-71
2022/01/02 07:01:12;;;;;;;12.60;11.30;;;;;;;;;;12588136;28;20482;-71
2022/01/02 07:10:10;;;;;;;11.98;10.77;;;;;;;;;;12586955;28;20494;-72
2022/01/02 07:16:12;;;;;;;;;;;;;;;;;;12585930;28;20055;-72
2022/01/02 07:22:14;;;;;;;23.35;16.35;;;;;;;;;;12586073;28;19916;-71
2022/01/02 07:28:15;;;;;;;16.75;14.45;;;;;;;;;;12585873;28;20044;-72
2022/01/02 07:34:17;;;;;;;21.03;15.43;;;;;;;;;;12586002;28;20033;-72
2022/01/02 07:46:25;;;;;;;9.82;8.80;;;;;;;;;;12587167;28;20489;-72
2022/01/02 07:52:26;;;;;;;9.80;8.77;;;;;;;;;;12586709;28;20040;-72
2022/01/02 07:58:28;;;;;;;18.17;12.48;;;;;;;;;;12587470;28;20051;-72
2022/01/02 08:04:30;;;;;;;15.05;11.27;;;;;;;;;;12586034;28;20491;-71
2022/01/02 08:10:31;;;;;;;13.30;10.38;;;;;;;;;;12585676;28;20048;-71
2022/01/02 08:16:34;;;;;;;17.27;14.95;;;;;;;;;;12567703;28;20029;-72
2022/01/02 08:22:35;;;;;;;15.82;11.18;;;;;;;;;;12585066;28;20036;-71
2022/01/02 08:28:37;;;;;;;21.67;17.10;;;;;;;;;;12567371;28;20053;-72
2022/01/02 08:34:39;;;;;;;11.48;10.15;;;;;;;;;;12584783;28;20063;-72
2022/01/02 08:40:41;;;;;;;15.27;13.10;;;;;;;;;;12584261;28;20041;-71
2022/01/02 08:46:42;;;;;;;20.98;16.42;;;;;;;;;;12583956;28;20045;-72
2022/01/02 08:52:44;;;;;;;17.38;14.02;;;;;;;;;;12578736;28;20048;-72
2022/01/02 08:58:46;;;;;;;12.40;11.20;;;;;;;;;;12533375;28;20040;-72
2022/01/02 09:04:48;;;;;;;12.77;11.48;;;;;;;;;;12549172;28;20044;-71
2022/01/02 09:10:50;;;;;;;13.70;11.88;;;;;;;;;;12550562;28;20471;-72
2022/01/02 09:16:52;;;;;;;11.43;10.32;;;;;;;;;;12548856;28;20041;-71
2022/01/02 09:22:55;;;;;;;10.57;9.25;;;;;;;;;;12548385;28;20036;-72
2022/01/02 09:28:56;;;;;;;;;;;;;;;;;;12548768;28;20046;-71
2022/01/02 09:34:58;;;;;;;21.08;16.17;;;;;;;;;;12547700;28;19908;-72
2022/01/02 09:41:00;;;;;;;14.25;12.70;;;;;;;;;;12530884;28;20060;-71
2022/01/02 09:47:02;;;;;;;18.30;13.93;;;;;;;;;;12548726;28;20033;-72
2022/01/02 09:53:04;;;;;;;12.93;11.65;;;;;;;;;;12548349;28;20033;-72
2022/01/02 09:59:06;;;;;;;14.87;12.07;;;;;;;;;;12547889;28;20032;-72
2022/01/02 10:05:08;;;;;;;14.20;12.68;;;;;;;;;;12546430;28;20052;-72
2022/01/02 10:11:23;;;;;;;12.20;10.98;;;;;;;;;;12546462;28;20083;-72
2022/01/02 10:17:24;;;;;;;13.57;12.20;;;;;;;;;;12529284;28;20394;-71
2022/01/02 10:23:27;;;;;;;16.55;14.02;;;;;;;;;;12545470;28;20037;-71
2022/01/02 10:29:38;;;;;;;15.18;13.57;;;;;;;;;;12545385;28;20040;-71
2022/01/02 10:35:41;;;;;;;13.68;12.27;;;;;;;;;;12545241;28;20397;-72
2022/01/02 10:41:45;;;;;;;21.70;18.67;;;;;;;;;;12544557;28;20057;-73
2022/01/02 10:47:47;;;;;;;19.38;16.92;;;;;;;;;;12527812;28;20118;-71
2022/01/02 10:53:59;;;;;;;15.88;13.95;;;;;;;;;;12544486;28;20040;-72
2022/01/02 11:00:01;;;;;;;16.47;14.63;;;;;;;;;;12544082;28;20368;-71
2022/01/02 11:06:10;;;;;;;18.65;16.58;;;;;;;;;;12545014;28;20048;-71
2022/01/02 11:12:12;;;;;;;16.15;14.45;;;;;;;;;;12527548;28;20474;-72
2022/01/02 11:18:14;;;;;;;16.40;14.70;;;;;;;;;;12526706;28;20025;-72
2022/01/02 11:24:24;;;;;;;13.73;12.27;;;;;;;;;;12544115;28;20052;-71
2022/01/02 11:30:29;;;;;;;23.90;20.48;;;;;;;;;;12543290;28;20036;-72
2022/01/02 11:36:33;;;;;;;17.58;15.77;;;;;;;;;;12543719;28;20055;-71
2022/01/02 11:42:35;;;;;;;15.05;13.18;;;;;;;;;;12525462;28;20103;-73
2022/01/02 11:48:36;;;;;;;19.65;17.77;;;;;;;;;;12525491;28;20037;-72
2022/01/02 11:54:46;;;;;;;20.05;17.88;;;;;;;;;;12544475;28;20386;-72
2022/01/02 12:00:48;;;;;;;16.95;15.27;;;;;;;;;;12541834;28;20048;-71
2022/01/02 12:06:52;;;;;;;19.08;17.17;;;;;;;;;;12541845;28;20104;-71
2022/01/02 12:12:57;;;;;;;14.05;12.73;;;;;;;;;;12542036;28;20029;-71
2022/01/02 12:19:00;;;;;;;22.10;19.92;;;;;;;;;;12543008;28;20068;-73
2022/01/02 12:25:09;;;;;;;19.60;17.70;;;;;;;;;;12541776;28;20045;-72
2022/01/02 12:31:16;;;;;;;19.35;17.35;;;;;;;;;;12548044;28;20494;-72
2022/01/02 12:37:27;;;;;;;19.30;17.38;;;;;;;;;;12552404;28;20039;-73
2022/01/02 12:43:30;;;;;;;22.48;20.25;;;;;;;;;;12551396;28;20053;-72
2022/01/02 12:49:32;;;;;;;;;;;;;;;;;;12534187;28;20043;-72
2022/01/02 12:55:34;;;;;;;22.17;15.85;;;;;;;;;;12549937;28;20363;-72
2022/01/02 13:01:46;;;;;;;18.90;16.97;;;;;;;;;;12533059;28;20041;-72
2022/01/02 13:07:56;;;;;;;20.80;18.10;;;;;;;;;;12533484;28;20040;-73
2022/01/02 13:13:58;;;;;;;12.48;11.18;;;;;;;;;;12533722;28;20418;-72
2022/01/02 13:20:07;;;;;;;23.58;21.17;;;;;;;;;;12549291;28;20032;-72
2022/01/02 13:26:19;;;;;;;21.88;19.58;;;;;;;;;;12549551;28;20407;-73
2022/01/02 13:32:21;;;;;;;21.90;18.63;;;;;;;;;;12532559;28;20040;-74
2022/01/02 13:38:23;;;;;;;9.93;8.95;;;;;;;;;;12549713;28;20055;-72
2022/01/02 13:44:25;;;;;;;12.57;11.25;;;;;;;;;;12547315;28;20450;-72
2022/01/02 13:50:35;;;;;;;19.90;17.83;;;;;;;;;;12547702;28;20037;-72
2022/01/02 13:56:55;;;;;;;18.10;16.05;;;;;;;;;;12548532;28;20403;-72
2022/01/02 14:02:57;;;;;;;19.52;17.52;;;;;;;;;;12546950;28;20060;-72
2022/01/02 14:09:09;;;;;;;23.77;21.38;;;;;;;;;;12548106;28;20032;-73
2022/01/02 14:15:15;;;;;;;24.60;22.08;;;;;;;;;;12530747;28;20041;-73
2022/01/02 14:21:17;;;;;;;27.63;24.75;;;;;;;;;;12546155;28;20124;-72
2022/01/02 14:27:20;;;;;;;27.73;24.83;;;;;;;;;;12528745;28;20056;-72
2022/01/02 14:33:22;;;;;;;;;;;;;;;;;;12547211;28;20047;-72
2022/01/02 14:39:24;;;;;;;15.60;12.70;;;;;;;;;;12545219;28;19916;-72
2022/01/02 14:45:26;;;;;;;18.30;15.27;;;;;;;;;;12528203;28;20060;-72
2022/01/02 14:51:28;;;;;;;17.20;15.37;;;;;;;;;;12527790;28;20390;-73
2022/01/02 14:57:29;;;;;;;20.92;18.58;;;;;;;;;;12545790;28;20524;-73
2022/01/02 15:03:32;;;;;;;18.98;16.45;;;;;;;;;;12545377;28;20033;-72
2022/01/02 15:09:33;;;;;;;16.40;11.70;;;;;;;;;;12545410;28;20482;-73
2022/01/02 15:15:35;;;;;;;18.30;16.33;;;;;;;;;;12544258;28;20509;-72
2022/01/02 15:21:37;;;;;;;17.55;15.73;;;;;;;;;;12543190;28;20047;-73
2022/01/02 15:27:39;;;;;;;19.43;13.50;;;;;;;;;;12542861;28;20036;-72
2022/01/02 15:33:42;;;;;;;15.32;12.63;;;;;;;;;;12526594;28;20041;-72
2022/01/02 15:39:44;;;;;;;20.15;14.93;;;;;;;;;;12526047;28;20037;-72
2022/01/02 15:51:40;;;;;;;30.73;19.08;;;;;;;;;;12587474;28;20225;-72
2022/01/02 15:57:42;;;;;;;23.40;18.38;;;;;;;;;;12586901;28;20021;-72
2022/01/02 16:03:44;;;;;;;43.63;28.80;;;;;;;;;;12586953;28;20028;-72
2022/01/02 16:09:45;;;;;;;63.90;42.38;;;;;;;;;;12585360;28;20041;-73
2022/01/02 16:15:48;;;;;;;43.80;28.37;;;;;;;;;;12568093;28;20044;-72
2022/01/02 16:21:50;;;;;;;36.40;25.07;;;;;;;;;;12586234;28;20025;-72
2022/01/02 16:27:54;;;;;;;24.00;21.30;;;;;;;;;;12567826;28;20302;-72
2022/01/02 16:33:56;;;;;;;21.33;16.70;;;;;;;;;;12585626;28;20509;-72
2022/01/02 16:39:57;;;;;;;19.60;16.02;;;;;;;;;;12585318;28;20036;-73
2022/01/02 16:45:59;;;;;;;25.52;19.05;;;;;;;;;;12566353;28;20045;-71
2022/01/02 16:52:01;;;;;;;26.37;19.70;;;;;;;;;;12584390;28;20044;-73
2022/01/02 16:58:03;;;;;;;23.42;19.40;;;;;;;;;;12577136;28;20302;-73
2022/01/02 17:04:05;;;;;;;16.02;12.38;;;;;;;;;;12549649;28;20037;-72
2022/01/02 17:10:08;;;;;;;18.70;13.98;;;;;;;;;;12549478;28;20390;-72
2022/01/02 17:16:09;;;;;;;30.27;22.35;;;;;;;;;;12550490;28;20029;-72
2022/01/02 17:22:11;;;;;;;19.95;17.83;;;;;;;;;;12548777;28;20052;-73
2022/01/02 17:28:13;;;;;;;35.80;24.02;;;;;;;;;;12549642;28;20486;-73
2022/01/02 17:34:15;;;;;;;26.83;21.52;;;;;;;;;;12549603;28;20029;-72
2022/01/02 17:40:18;;;;;;;23.75;19.30;;;;;;;;;;12550140;28;20036;-72
2022/01/02 17:46:23;;;;;;;25.75;20.08;;;;;;;;;;12531223;28;20060;-73
2022/01/02 17:52:25;;;;;;;23.08;20.02;;;;;;;;;;12547819;28;20032;-72
2022/01/02 17:58:27;;;;;;;23.67;18.35;;;;;;;;;;12547353;28;20037;-72
2022/01/02 18:04:29;;;;;;;20.30;15.50;;;;;;;;;;12546861;28;20040;-72
2022/01/02 18:10:32;;;;;;;17.67;14.15;;;;;;;;;;12547166;28;20040;-73
2022/01/02 18:16:34;;;;;;;16.85;13.05;;;;;;;;;;12547739;28;20048;-72
2022/01/02 18:22:37;;;;;;;24.20;18.60;;;;;;;;;;12546042;28;20029;-73
2022/01/02 18:28:39;;;;;;;22.67;17.85;;;;;;;;;;12546814;28;20041;-72
2022/01/02 18:40:54;;;;;;;23.83;18.23;;;;;;;;;;12587628;28;20881;-71
2022/01/02 18:46:56;;;;;;;35.85;25.95;;;;;;;;;;12587115;28;20036;-73
2022/01/02 18:52:57;;;;;;;35.33;25.13;;;;;;;;;;12586972;28;20485;-72
2022/01/02 18:58:59;;;;;;;25.10;18.48;;;;;;;;;;12585103;28;20055;-73
2022/01/02 19:05:01;;;;;;;24.33;18.85;;;;;;;;;;12587529;28;20212;-72
2022/01/02 19:11:04;;;;;;;21.77;16.55;;;;;;;;;;12585075;28;20044;-73
2022/01/02 19:17:06;;;;;;;36.08;25.08;;;;;;;;;;12586086;28;20048;-72
2022/01/02 19:23:08;;;;;;;37.20;27.33;;;;;;;;;;12584227;28;20048;-72
2022/01/02 19:29:10;;;;;;;46.42;30.92;;;;;;;;;;12585439;28;20040;-72
2022/01/02 19:35:12;;;;;;;22.85;17.92;;;;;;;;;;12567371;28;20056;-73
2022/01/02 19:41:14;;;;;;;20.40;17.53;;;;;;;;;;12567174;28;20040;-72
2022/01/02 19:47:16;;;;;;;24.13;20.05;;;;;;;;;;12560812;28;20044;-72
2022/01/02 19:53:18;;;;;;;20.67;18.23;;;;;;;;;;12551226;28;20143;-73
2022/01/02 19:59:19;;;;;;;20.20;17.27;;;;;;;;;;12551219;28;20041;-71
2022/01/02 20:05:21;;;;;;;21.83;16.13;;;;;;;;;;12549421;28;20482;-73
2022/01/02 20:11:24;;;;;;;29.02;23.60;;;;;;;;;;12549018;28;20474;-72
2022/01/02 20:17:27;;;;;;;23.48;20.23;;;;;;;;;;12549074;28;20519;-73
2022/01/02 20:23:28;;;;;;;23.92;20.10;;;;;;;;;;12531769;28;20029;-72
2022/01/02 20:29:30;;;;;;;33.53;24.77;;;;;;;;;;12548012;28;20029;-72
2022/01/02 20:35:36;;;;;;;27.90;21.15;;;;;;;;;;12530842;28;20490;-73
2022/01/02 20:41:38;;;;;;;30.77;24.45;;;;;;;;;;12548588;28;20025;-72
2022/01/02 20:47:41;;;;;;;45.53;31.58;;;;;;;;;;12547048;28;20044;-72
2022/01/02 20:53:42;;;;;;;;;;;;;;;;;;12530808;28;20037;-72
2022/01/02 20:59:45;;;;;;;37.30;24.48;;;;;;;;;;12546666;28;19917;-72
2022/01/02 21:05:47;;;;;;;29.63;22.60;;;;;;;;;;12547819;28;20040;-72
2022/01/02 21:11:49;;;;;;;24.92;19.85;;;;;;;;;;12547120;28;20075;-72
2022/01/02 21:17:51;;;;;;;28.50;22.77;;;;;;;;;;12545734;28;20048;-71
2022/01/02 21:23:53;;;;;;;25.75;19.02;;;;;;;;;;12528625;28;20033;-73
2022/01/02 21:29:55;;;;;;;30.17;21.13;;;;;;;;;;12543497;28;20033;-73
2022/01/02 21:35:56;;;;;;;30.50;21.17;;;;;;;;;;12545104;28;20049;-73
2022/01/02 21:41:58;;;;;;;31.42;22.90;;;;;;;;;;12528143;28;20055;-71
2022/01/02 21:48:00;;;;;;;34.53;25.60;;;;;;;;;;12527818;28;20037;-71
2022/01/02 21:54:03;;;;;;;29.27;21.48;;;;;;;;;;12545173;28;20029;-73
2022/01/02 22:00:06;;;;;;;29.52;21.52;;;;;;;;;;12544726;28;20040;-71
2022/01/02 22:06:08;;;;;;;34.10;22.65;;;;;;;;;;12545087;28;20496;-73
2022/01/02 22:12:12;;;;;;;37.57;26.50;;;;;;;;;;12543231;28;20025;-73
2022/01/02 22:18:14;;;;;;;26.73;20.27;;;;;;;;;;12544099;28;20051;-72
2022/01/02 22:24:16;;;;;;;34.50;22.20;;;;;;;;;;12543204;28;20482;-72
2022/01/02 22:30:19;;;;;;;31.13;20.23;;;;;;;;;;12542905;28;20033;-73
2022/01/02 22:36:21;;;;;;;21.98;14.85;;;;;;;;;;12542332;28;20391;-72
2022/01/02 22:42:24;;;;;;;19.00;13.55;;;;;;;;;;12542558;28;20032;-71
2022/01/02 22:48:28;;;;;;;23.83;13.13;;;;;;;;;;12542626;28;20033;-73
2022/01/02 22:54:30;;;;;;;28.10;16.42;;;;;;;;;;12542607;28;20032;-71
2022/01/02 23:00:35;;;;;;;26.33;14.17;;;;;;;;;;12541712;28;20418;-72
2022/01/02 23:06:36;;;;;;;17.25;10.45;;;;;;;;;;12543688;28;20501;-72
2022/01/02 23:12:38;;;;;;;22.90;12.15;;;;;;;;;;12525099;28;20029;-72
2022/01/02 23:18:41;;;;;;;20.83;12.60;;;;;;;;;;12541661;28;20522;-72
2022/01/02 23:24:45;;;;;;;21.35;12.55;;;;;;;;;;12547373;28;20033;-72
2022/01/02 23:30:47;;;;;;;20.15;13.70;;;;;;;;;;12550884;28;20041;-72
2022/01/02 23:36:49;;;;;;;20.33;12.07;;;;;;;;;;12551509;28;20083;-72
2022/01/02 23:42:51;;;;;;;37.08;21.17;;;;;;;;;;12551847;28;20037;-71
2022/01/02 23:48:53;;;;;;;24.75;15.55;;;;;;;;;;12551542;28;20032;-72
2022/01/02 23:54:55;;;;;;;20.02;12.82;;;;;;;;;;12550976;28;20029;-72
